sensor_id;sensor_type;location;lat;lon;timestamp;P1;durP1;ratioP1;P2;durP2;ratioP2
23573;SDS011;11965;53.640;10.050;2022-07-29T00:00:14;3.78;;;2.03;;
23573;SDS011;11965;53.640;10.050;2022-07-29T00:02:39;3.22;;;1.40;;
23573;SDS011;11965;53.640;10.050;2022-07-29T00:05:05;3.80;;;1.40;;
23573;SDS011;11965;53.640;10.050;2022-07-29T00:07:30;2.10;;;1.60;;
23573;SDS011;11965;53.640;10.050;2022-07-29T00:09:56;2.33;;;1.70;;
23573;SDS011;11965;53.640;10.050;2022-07-29T00:12:22;4.80;;;1.70;;
23573;SDS011;11965;53.640;10.050;2022-07-29T00:14:50;2.72;;;1.65;;
23573;SDS011;11965;53.640;10.050;2022-07-29T00:17:15;3.65;;;1.80;;
23573;SDS011;11965;53.640;10.050;2022-07-29T00:19:41;5.88;;;2.00;;
23573;SDS011;11965;53.640;10.050;2022-07-29T00:22:06;3.40;;;2.15;;
23573;SDS011;11965;53.640;10.050;2022-07-29T00:24:32;3.65;;;1.65;;
23573;SDS011;11965;53.640;10.050;2022-07-29T00:26:57;3.47;;;1.67;;
23573;SDS011;11965;53.640;10.050;2022-07-29T00:29:24;4.03;;;1.80;;
23573;SDS011;11965;53.640;10.050;2022-07-29T00:31:49;4.43;;;1.88;;
23573;SDS011;11965;53.640;10.050;2022-07-29T00:34:15;3.60;;;1.52;;
23573;SDS011;11965;53.640;10.050;2022-07-29T00:36:59;2.13;;;1.50;;
23573;SDS011;11965;53.640;10.050;2022-07-29T00:39:25;3.55;;;1.70;;
23573;SDS011;11965;53.640;10.050;2022-07-29T00:41:50;2.75;;;1.58;;
23573;SDS011;11965;53.640;10.050;2022-07-29T00:44:16;4.10;;;1.70;;
23573;SDS011;11965;53.640;10.050;2022-07-29T00:46:41;3.83;;;2.10;;
23573;SDS011;11965;53.640;10.050;2022-07-29T00:49:07;3.53;;;1.77;;
23573;SDS011;11965;53.640;10.050;2022-07-29T00:51:34;2.00;;;1.40;;
23573;SDS011;11965;53.640;10.050;2022-07-29T00:54:02;4.20;;;1.60;;
23573;SDS011;11965;53.640;10.050;2022-07-29T00:56:29;3.15;;;1.80;;
23573;SDS011;11965;53.640;10.050;2022-07-29T00:58:56;2.95;;;1.50;;
23573;SDS011;11965;53.640;10.050;2022-07-29T01:01:22;2.83;;;1.95;;
23573;SDS011;11965;53.640;10.050;2022-07-29T01:03:48;2.97;;;1.88;;
23573;SDS011;11965;53.640;10.050;2022-07-29T01:06:14;8.05;;;2.85;;
23573;SDS011;11965;53.640;10.050;2022-07-29T01:08:44;3.58;;;2.03;;
23573;SDS011;11965;53.640;10.050;2022-07-29T01:11:12;4.30;;;1.88;;
23573;SDS011;11965;53.640;10.050;2022-07-29T01:13:39;3.33;;;2.00;;
23573;SDS011;11965;53.640;10.050;2022-07-29T01:16:28;2.88;;;2.03;;
23573;SDS011;11965;53.640;10.050;2022-07-29T01:18:56;5.60;;;1.80;;
23573;SDS011;11965;53.640;10.050;2022-07-29T01:21:35;3.25;;;1.90;;
23573;SDS011;11965;53.640;10.050;2022-07-29T01:24:25;3.92;;;1.70;;
23573;SDS011;11965;53.640;10.050;2022-07-29T01:27:11;5.50;;;1.40;;
23573;SDS011;11965;53.640;10.050;2022-07-29T01:30:05;3.05;;;1.90;;
23573;SDS011;11965;53.640;10.050;2022-07-29T01:32:32;5.65;;;1.95;;
23573;SDS011;11965;53.640;10.050;2022-07-29T01:35:13;5.53;;;2.03;;
23573;SDS011;11965;53.640;10.050;2022-07-29T01:37:48;4.70;;;2.00;;
23573;SDS011;11965;53.640;10.050;2022-07-29T01:40:25;4.07;;;1.75;;
23573;SDS011;11965;53.640;10.050;2022-07-29T01:42:57;2.17;;;1.77;;
23573;SDS011;11965;53.640;10.050;2022-07-29T01:45:26;6.50;;;1.65;;
23573;SDS011;11965;53.640;10.050;2022-07-29T01:48:02;3.28;;;1.73;;
23573;SDS011;11965;53.640;10.050;2022-07-29T01:50:35;2.58;;;1.80;;
23573;SDS011;11965;53.640;10.050;2022-07-29T01:53:09;2.95;;;1.70;;
23573;SDS011;11965;53.640;10.050;2022-07-29T01:55:41;2.60;;;1.92;;
23573;SDS011;11965;53.640;10.050;2022-07-29T01:58:09;4.03;;;1.90;;
23573;SDS011;11965;53.640;10.050;2022-07-29T02:00:37;5.07;;;1.80;;
23573;SDS011;11965;53.640;10.050;2022-07-29T02:03:05;4.47;;;1.90;;
23573;SDS011;11965;53.640;10.050;2022-07-29T02:05:36;3.90;;;2.33;;
23573;SDS011;11965;53.640;10.050;2022-07-29T02:08:04;3.10;;;1.80;;
23573;SDS011;11965;53.640;10.050;2022-07-29T02:10:32;4.07;;;1.73;;
23573;SDS011;11965;53.640;10.050;2022-07-29T02:12:59;2.75;;;1.98;;
23573;SDS011;11965;53.640;10.050;2022-07-29T02:15:27;3.25;;;1.85;;
23573;SDS011;11965;53.640;10.050;2022-07-29T02:18:00;2.75;;;2.00;;
23573;SDS011;11965;53.640;10.050;2022-07-29T02:20:28;2.58;;;1.83;;
23573;SDS011;11965;53.640;10.050;2022-07-29T02:22:55;2.92;;;1.90;;
23573;SDS011;11965;53.640;10.050;2022-07-29T02:25:22;4.15;;;1.90;;
23573;SDS011;11965;53.640;10.050;2022-07-29T02:27:49;3.67;;;1.80;;
23573;SDS011;11965;53.640;10.050;2022-07-29T02:30:16;4.05;;;2.08;;
23573;SDS011;11965;53.640;10.050;2022-07-29T02:32:43;3.08;;;2.00;;
23573;SDS011;11965;53.640;10.050;2022-07-29T02:35:11;4.57;;;1.92;;
23573;SDS011;11965;53.640;10.050;2022-07-29T02:37:38;3.00;;;2.00;;
23573;SDS011;11965;53.640;10.050;2022-07-29T02:40:07;4.53;;;1.83;;
23573;SDS011;11965;53.640;10.050;2022-07-29T02:42:34;5.63;;;2.10;;
23573;SDS011;11965;53.640;10.050;2022-07-29T02:45:02;3.38;;;2.05;;
23573;SDS011;11965;53.640;10.050;2022-07-29T02:47:36;3.47;;;2.17;;
23573;SDS011;11965;53.640;10.050;2022-07-29T02:50:20;4.50;;;2.20;;
23573;SDS011;11965;53.640;10.050;2022-07-29T02:52:54;3.85;;;2.00;;
23573;SDS011;11965;53.640;10.050;2022-07-29T02:55:37;3.78;;;2.05;;
23573;SDS011;11965;53.640;10.050;2022-07-29T02:58:13;3.50;;;2.08;;
23573;SDS011;11965;53.640;10.050;2022-07-29T03:00:45;3.53;;;2.30;;
23573;SDS011;11965;53.640;10.050;2022-07-29T03:03:13;3.33;;;2.40;;
23573;SDS011;11965;53.640;10.050;2022-07-29T03:05:43;4.72;;;2.13;;
23573;SDS011;11965;53.640;10.050;2022-07-29T03:08:09;5.45;;;2.40;;
23573;SDS011;11965;53.640;10.050;2022-07-29T03:10:37;4.20;;;2.17;;
23573;SDS011;11965;53.640;10.050;2022-07-29T03:13:07;4.22;;;2.25;;
23573;SDS011;11965;53.640;10.050;2022-07-29T03:15:34;6.68;;;2.35;;
23573;SDS011;11965;53.640;10.050;2022-07-29T03:18:00;4.55;;;2.17;;
23573;SDS011;11965;53.640;10.050;2022-07-29T03:20:27;4.75;;;2.45;;
23573;SDS011;11965;53.640;10.050;2022-07-29T03:22:52;4.00;;;2.17;;
23573;SDS011;11965;53.640;10.050;2022-07-29T03:25:19;6.47;;;2.47;;
23573;SDS011;11965;53.640;10.050;2022-07-29T03:27:45;7.95;;;2.40;;
23573;SDS011;11965;53.640;10.050;2022-07-29T03:30:12;4.75;;;2.15;;
23573;SDS011;11965;53.640;10.050;2022-07-29T03:32:38;4.25;;;2.50;;
23573;SDS011;11965;53.640;10.050;2022-07-29T03:35:04;4.40;;;2.35;;
23573;SDS011;11965;53.640;10.050;2022-07-29T03:37:30;5.57;;;2.30;;
23573;SDS011;11965;53.640;10.050;2022-07-29T03:39:57;4.88;;;2.30;;
23573;SDS011;11965;53.640;10.050;2022-07-29T03:42:24;4.15;;;2.10;;
23573;SDS011;11965;53.640;10.050;2022-07-29T03:44:52;6.22;;;2.25;;
23573;SDS011;11965;53.640;10.050;2022-07-29T03:47:20;9.07;;;2.60;;
23573;SDS011;11965;53.640;10.050;2022-07-29T03:49:51;5.13;;;2.35;;
23573;SDS011;11965;53.640;10.050;2022-07-29T03:52:18;3.58;;;2.35;;
23573;SDS011;11965;53.640;10.050;2022-07-29T03:54:46;4.93;;;2.80;;
23573;SDS011;11965;53.640;10.050;2022-07-29T03:57:12;5.15;;;2.35;;
23573;SDS011;11965;53.640;10.050;2022-07-29T03:59:39;7.05;;;2.38;;
23573;SDS011;11965;53.640;10.050;2022-07-29T04:02:06;3.30;;;2.15;;
23573;SDS011;11965;53.640;10.050;2022-07-29T04:04:35;6.20;;;2.20;;
23573;SDS011;11965;53.640;10.050;2022-07-29T04:07:01;4.72;;;2.30;;
23573;SDS011;11965;53.640;10.050;2022-07-29T04:09:27;5.40;;;2.33;;
23573;SDS011;11965;53.640;10.050;2022-07-29T04:11:53;3.15;;;2.15;;
23573;SDS011;11965;53.640;10.050;2022-07-29T04:14:19;4.90;;;2.47;;
23573;SDS011;11965;53.640;10.050;2022-07-29T04:16:45;2.85;;;2.05;;
23573;SDS011;11965;53.640;10.050;2022-07-29T04:19:11;5.03;;;2.42;;
23573;SDS011;11965;53.640;10.050;2022-07-29T04:21:37;4.53;;;2.28;;
23573;SDS011;11965;53.640;10.050;2022-07-29T04:24:04;5.72;;;2.70;;
23573;SDS011;11965;53.640;10.050;2022-07-29T04:26:30;4.68;;;2.17;;
23573;SDS011;11965;53.640;10.050;2022-07-29T04:28:55;5.28;;;2.17;;
23573;SDS011;11965;53.640;10.050;2022-07-29T04:31:21;5.45;;;2.50;;
23573;SDS011;11965;53.640;10.050;2022-07-29T04:33:46;4.45;;;2.25;;
23573;SDS011;11965;53.640;10.050;2022-07-29T04:36:12;3.50;;;2.10;;
23573;SDS011;11965;53.640;10.050;2022-07-29T04:38:38;5.82;;;2.20;;
23573;SDS011;11965;53.640;10.050;2022-07-29T04:41:04;4.68;;;2.22;;
23573;SDS011;11965;53.640;10.050;2022-07-29T04:43:32;5.63;;;2.35;;
23573;SDS011;11965;53.640;10.050;2022-07-29T04:45:58;3.47;;;2.50;;
23573;SDS011;11965;53.640;10.050;2022-07-29T04:48:23;4.13;;;2.30;;
23573;SDS011;11965;53.640;10.050;2022-07-29T04:50:49;3.95;;;2.30;;
23573;SDS011;11965;53.640;10.050;2022-07-29T04:53:14;4.03;;;2.40;;
23573;SDS011;11965;53.640;10.050;2022-07-29T04:55:40;4.50;;;2.22;;
23573;SDS011;11965;53.640;10.050;2022-07-29T04:58:06;4.38;;;2.28;;
23573;SDS011;11965;53.640;10.050;2022-07-29T05:00:32;4.65;;;2.63;;
23573;SDS011;11965;53.640;10.050;2022-07-29T05:02:58;3.28;;;2.30;;
23573;SDS011;11965;53.640;10.050;2022-07-29T05:05:23;6.40;;;2.42;;
23573;SDS011;11965;53.640;10.050;2022-07-29T05:07:48;5.32;;;2.33;;
23573;SDS011;11965;53.640;10.050;2022-07-29T05:10:14;5.18;;;2.40;;
23573;SDS011;11965;53.640;10.050;2022-07-29T05:12:40;3.40;;;2.33;;
23573;SDS011;11965;53.640;10.050;2022-07-29T05:15:05;6.35;;;2.47;;
23573;SDS011;11965;53.640;10.050;2022-07-29T05:17:31;5.22;;;2.25;;
23573;SDS011;11965;53.640;10.050;2022-07-29T05:19:57;5.72;;;2.60;;
23573;SDS011;11965;53.640;10.050;2022-07-29T05:22:23;3.13;;;1.98;;
23573;SDS011;11965;53.640;10.050;2022-07-29T05:24:49;5.90;;;2.42;;
23573;SDS011;11965;53.640;10.050;2022-07-29T05:27:14;5.80;;;2.30;;
23573;SDS011;11965;53.640;10.050;2022-07-29T05:29:40;9.55;;;2.58;;
23573;SDS011;11965;53.640;10.050;2022-07-29T05:32:06;5.93;;;2.80;;
23573;SDS011;11965;53.640;10.050;2022-07-29T05:34:32;6.60;;;2.30;;
23573;SDS011;11965;53.640;10.050;2022-07-29T05:36:57;5.55;;;2.60;;
23573;SDS011;11965;53.640;10.050;2022-07-29T05:39:23;4.90;;;2.25;;
23573;SDS011;11965;53.640;10.050;2022-07-29T05:41:49;5.82;;;2.45;;
23573;SDS011;11965;53.640;10.050;2022-07-29T05:44:15;5.90;;;2.42;;
23573;SDS011;11965;53.640;10.050;2022-07-29T05:46:40;5.88;;;2.42;;
23573;SDS011;11965;53.640;10.050;2022-07-29T05:49:06;4.70;;;2.38;;
23573;SDS011;11965;53.640;10.050;2022-07-29T05:51:32;6.15;;;2.40;;
23573;SDS011;11965;53.640;10.050;2022-07-29T05:53:59;4.43;;;2.17;;
23573;SDS011;11965;53.640;10.050;2022-07-29T05:56:25;6.78;;;2.88;;
23573;SDS011;11965;53.640;10.050;2022-07-29T05:58:51;2.80;;;2.00;;
23573;SDS011;11965;53.640;10.050;2022-07-29T06:01:17;4.90;;;2.38;;
23573;SDS011;11965;53.640;10.050;2022-07-29T06:03:43;5.78;;;2.10;;
23573;SDS011;11965;53.640;10.050;2022-07-29T06:06:08;4.28;;;2.30;;
23573;SDS011;11965;53.640;10.050;2022-07-29T06:08:35;4.10;;;2.25;;
23573;SDS011;11965;53.640;10.050;2022-07-29T06:11:02;3.75;;;2.20;;
23573;SDS011;11965;53.640;10.050;2022-07-29T06:13:29;4.63;;;2.47;;
23573;SDS011;11965;53.640;10.050;2022-07-29T06:15:54;8.57;;;2.13;;
23573;SDS011;11965;53.640;10.050;2022-07-29T06:18:20;4.47;;;2.42;;
23573;SDS011;11965;53.640;10.050;2022-07-29T06:20:48;4.93;;;2.38;;
23573;SDS011;11965;53.640;10.050;2022-07-29T06:23:15;4.65;;;2.22;;
23573;SDS011;11965;53.640;10.050;2022-07-29T06:25:40;4.75;;;2.17;;
23573;SDS011;11965;53.640;10.050;2022-07-29T06:28:06;6.10;;;2.30;;
23573;SDS011;11965;53.640;10.050;2022-07-29T06:30:33;4.22;;;2.28;;
23573;SDS011;11965;53.640;10.050;2022-07-29T06:32:58;5.63;;;2.03;;
23573;SDS011;11965;53.640;10.050;2022-07-29T06:35:25;2.65;;;2.13;;
23573;SDS011;11965;53.640;10.050;2022-07-29T06:37:51;3.47;;;2.03;;
23573;SDS011;11965;53.640;10.050;2022-07-29T06:40:17;6.03;;;2.20;;
23573;SDS011;11965;53.640;10.050;2022-07-29T06:43:01;6.18;;;2.28;;
23573;SDS011;11965;53.640;10.050;2022-07-29T06:45:26;3.42;;;2.10;;
23573;SDS011;11965;53.640;10.050;2022-07-29T06:47:51;4.07;;;2.25;;
23573;SDS011;11965;53.640;10.050;2022-07-29T06:50:17;3.25;;;2.00;;
23573;SDS011;11965;53.640;10.050;2022-07-29T06:52:42;2.80;;;1.88;;
23573;SDS011;11965;53.640;10.050;2022-07-29T06:55:08;4.32;;;2.20;;
23573;SDS011;11965;53.640;10.050;2022-07-29T06:57:34;3.58;;;2.20;;
23573;SDS011;11965;53.640;10.050;2022-07-29T07:00:00;7.10;;;2.33;;
23573;SDS011;11965;53.640;10.050;2022-07-29T07:02:26;4.15;;;1.90;;
23573;SDS011;11965;53.640;10.050;2022-07-29T07:04:52;6.35;;;2.33;;
23573;SDS011;11965;53.640;10.050;2022-07-29T07:07:18;2.97;;;2.10;;
23573;SDS011;11965;53.640;10.050;2022-07-29T07:09:44;3.85;;;1.92;;
23573;SDS011;11965;53.640;10.050;2022-07-29T07:12:09;3.28;;;1.83;;
23573;SDS011;11965;53.640;10.050;2022-07-29T07:14:35;6.35;;;2.10;;
23573;SDS011;11965;53.640;10.050;2022-07-29T07:17:01;3.92;;;1.92;;
23573;SDS011;11965;53.640;10.050;2022-07-29T07:19:28;3.55;;;1.95;;
23573;SDS011;11965;53.640;10.050;2022-07-29T07:21:54;4.60;;;1.98;;
23573;SDS011;11965;53.640;10.050;2022-07-29T07:24:20;4.18;;;1.88;;
23573;SDS011;11965;53.640;10.050;2022-07-29T07:26:46;4.60;;;2.40;;
23573;SDS011;11965;53.640;10.050;2022-07-29T07:29:12;5.05;;;2.08;;
23573;SDS011;11965;53.640;10.050;2022-07-29T07:31:38;4.18;;;2.00;;
23573;SDS011;11965;53.640;10.050;2022-07-29T07:34:04;3.80;;;1.90;;
23573;SDS011;11965;53.640;10.050;2022-07-29T07:36:29;4.60;;;2.10;;
23573;SDS011;11965;53.640;10.050;2022-07-29T07:38:55;3.58;;;1.83;;
23573;SDS011;11965;53.640;10.050;2022-07-29T07:41:21;5.35;;;2.22;;
23573;SDS011;11965;53.640;10.050;2022-07-29T07:43:46;4.65;;;2.00;;
23573;SDS011;11965;53.640;10.050;2022-07-29T07:46:12;4.70;;;2.13;;
23573;SDS011;11965;53.640;10.050;2022-07-29T07:48:39;6.32;;;1.80;;
23573;SDS011;11965;53.640;10.050;2022-07-29T07:51:05;4.07;;;2.20;;
23573;SDS011;11965;53.640;10.050;2022-07-29T07:53:33;2.55;;;1.95;;
23573;SDS011;11965;53.640;10.050;2022-07-29T07:55:59;6.10;;;2.30;;
23573;SDS011;11965;53.640;10.050;2022-07-29T07:58:25;3.25;;;2.22;;
23573;SDS011;11965;53.640;10.050;2022-07-29T08:00:51;4.75;;;2.10;;
23573;SDS011;11965;53.640;10.050;2022-07-29T08:03:16;4.00;;;1.88;;
23573;SDS011;11965;53.640;10.050;2022-07-29T08:05:42;5.15;;;2.15;;
23573;SDS011;11965;53.640;10.050;2022-07-29T08:08:08;4.28;;;2.20;;
23573;SDS011;11965;53.640;10.050;2022-07-29T08:10:34;8.52;;;2.70;;
23573;SDS011;11965;53.640;10.050;2022-07-29T08:13:20;4.32;;;2.00;;
23573;SDS011;11965;53.640;10.050;2022-07-29T08:15:48;4.35;;;2.03;;
23573;SDS011;11965;53.640;10.050;2022-07-29T08:18:22;5.22;;;2.10;;
23573;SDS011;11965;53.640;10.050;2022-07-29T08:20:54;5.18;;;2.10;;
23573;SDS011;11965;53.640;10.050;2022-07-29T08:23:20;3.97;;;1.90;;
23573;SDS011;11965;53.640;10.050;2022-07-29T08:25:48;3.38;;;1.92;;
23573;SDS011;11965;53.640;10.050;2022-07-29T08:28:14;4.70;;;2.10;;
23573;SDS011;11965;53.640;10.050;2022-07-29T08:30:40;3.85;;;1.95;;
23573;SDS011;11965;53.640;10.050;2022-07-29T08:33:05;4.88;;;2.10;;
23573;SDS011;11965;53.640;10.050;2022-07-29T08:35:31;5.78;;;1.90;;
23573;SDS011;11965;53.640;10.050;2022-07-29T08:37:56;3.05;;;1.95;;
23573;SDS011;11965;53.640;10.050;2022-07-29T08:40:22;3.63;;;2.20;;
23573;SDS011;11965;53.640;10.050;2022-07-29T08:42:51;6.07;;;2.03;;
23573;SDS011;11965;53.640;10.050;2022-07-29T08:45:17;2.92;;;1.98;;
23573;SDS011;11965;53.640;10.050;2022-07-29T08:47:43;4.45;;;2.00;;
23573;SDS011;11965;53.640;10.050;2022-07-29T08:50:10;3.72;;;2.33;;
23573;SDS011;11965;53.640;10.050;2022-07-29T08:52:40;5.35;;;1.98;;
23573;SDS011;11965;53.640;10.050;2022-07-29T08:55:08;5.40;;;2.20;;
23573;SDS011;11965;53.640;10.050;2022-07-29T08:57:34;3.03;;;1.75;;
23573;SDS011;11965;53.640;10.050;2022-07-29T09:00:01;4.15;;;1.92;;
23573;SDS011;11965;53.640;10.050;2022-07-29T09:02:29;5.10;;;2.05;;
23573;SDS011;11965;53.640;10.050;2022-07-29T09:05:00;4.28;;;2.13;;
23573;SDS011;11965;53.640;10.050;2022-07-29T09:07:27;5.80;;;2.15;;
23573;SDS011;11965;53.640;10.050;2022-07-29T09:09:53;5.13;;;1.90;;
23573;SDS011;11965;53.640;10.050;2022-07-29T09:12:19;6.03;;;2.10;;
23573;SDS011;11965;53.640;10.050;2022-07-29T09:14:48;7.63;;;2.30;;
23573;SDS011;11965;53.640;10.050;2022-07-29T09:17:13;4.93;;;2.10;;
23573;SDS011;11965;53.640;10.050;2022-07-29T09:19:41;4.43;;;2.03;;
23573;SDS011;11965;53.640;10.050;2022-07-29T09:22:07;4.72;;;2.10;;
23573;SDS011;11965;53.640;10.050;2022-07-29T09:27:00;5.90;;;1.90;;
23573;SDS011;11965;53.640;10.050;2022-07-29T09:29:26;5.32;;;1.83;;
23573;SDS011;11965;53.640;10.050;2022-07-29T09:31:53;3.92;;;1.80;;
23573;SDS011;11965;53.640;10.050;2022-07-29T09:34:23;3.72;;;2.33;;
23573;SDS011;11965;53.640;10.050;2022-07-29T09:36:56;3.63;;;1.70;;
23573;SDS011;11965;53.640;10.050;2022-07-29T09:41:56;1.95;;;1.75;;
23573;SDS011;11965;53.640;10.050;2022-07-29T09:44:24;2.33;;;1.52;;
23573;SDS011;11965;53.640;10.050;2022-07-29T09:46:57;6.75;;;2.55;;
23573;SDS011;11965;53.640;10.050;2022-07-29T09:49:27;3.10;;;1.80;;
23573;SDS011;11965;53.640;10.050;2022-07-29T09:52:04;3.53;;;2.00;;
23573;SDS011;11965;53.640;10.050;2022-07-29T09:54:31;5.65;;;2.00;;
23573;SDS011;11965;53.640;10.050;2022-07-29T09:57:03;7.10;;;1.88;;
23573;SDS011;11965;53.640;10.050;2022-07-29T09:59:30;4.30;;;1.60;;
23573;SDS011;11965;53.640;10.050;2022-07-29T10:01:56;3.83;;;1.77;;
23573;SDS011;11965;53.640;10.050;2022-07-29T10:04:21;3.17;;;1.95;;
23573;SDS011;11965;53.640;10.050;2022-07-29T10:06:58;4.85;;;1.80;;
23573;SDS011;11965;53.640;10.050;2022-07-29T10:09:25;4.55;;;1.50;;
23573;SDS011;11965;53.640;10.050;2022-07-29T10:12:10;5.72;;;1.52;;
23573;SDS011;11965;53.640;10.050;2022-07-29T10:14:41;2.97;;;1.58;;
23573;SDS011;11965;53.640;10.050;2022-07-29T10:17:07;3.35;;;1.55;;
23573;SDS011;11965;53.640;10.050;2022-07-29T10:19:35;3.42;;;1.52;;
23573;SDS011;11965;53.640;10.050;2022-07-29T10:22:03;4.70;;;1.45;;
23573;SDS011;11965;53.640;10.050;2022-07-29T10:24:31;2.83;;;1.55;;
23573;SDS011;11965;53.640;10.050;2022-07-29T10:26:57;3.00;;;1.40;;
23573;SDS011;11965;53.640;10.050;2022-07-29T10:29:25;3.65;;;1.48;;
23573;SDS011;11965;53.640;10.050;2022-07-29T10:43:42;5.15;;;1.65;;
23573;SDS011;11965;53.640;10.050;2022-07-29T10:46:11;2.97;;;1.50;;
23573;SDS011;11965;53.640;10.050;2022-07-29T10:51:59;5.18;;;1.60;;
23573;SDS011;11965;53.640;10.050;2022-07-29T10:57:18;7.53;;;1.63;;
23573;SDS011;11965;53.640;10.050;2022-07-29T11:05:11;5.07;;;1.40;;
23573;SDS011;11965;53.640;10.050;2022-07-29T11:07:40;2.33;;;1.52;;
23573;SDS011;11965;53.640;10.050;2022-07-29T11:10:43;3.55;;;1.60;;
23573;SDS011;11965;53.640;10.050;2022-07-29T11:13:08;2.25;;;1.23;;
23573;SDS011;11965;53.640;10.050;2022-07-29T11:15:53;5.07;;;1.35;;
23573;SDS011;11965;53.640;10.050;2022-07-29T11:18:22;2.30;;;1.25;;
23573;SDS011;11965;53.640;10.050;2022-07-29T11:20:49;5.72;;;1.60;;
23573;SDS011;11965;53.640;10.050;2022-07-29T11:23:19;2.90;;;1.67;;
23573;SDS011;11965;53.640;10.050;2022-07-29T11:31:16;2.15;;;1.35;;
23573;SDS011;11965;53.640;10.050;2022-07-29T11:33:44;3.42;;;1.30;;
23573;SDS011;11965;53.640;10.050;2022-07-29T11:36:13;3.17;;;1.40;;
23573;SDS011;11965;53.640;10.050;2022-07-29T11:38:40;2.72;;;1.40;;
23573;SDS011;11965;53.640;10.050;2022-07-29T11:41:27;2.22;;;1.30;;
23573;SDS011;11965;53.640;10.050;2022-07-29T11:43:58;3.40;;;1.30;;
23573;SDS011;11965;53.640;10.050;2022-07-29T11:49:24;3.95;;;1.40;;
23573;SDS011;11965;53.640;10.050;2022-07-29T11:51:51;3.83;;;1.55;;
23573;SDS011;11965;53.640;10.050;2022-07-29T11:54:22;4.22;;;1.60;;
23573;SDS011;11965;53.640;10.050;2022-07-29T11:56:50;3.55;;;1.33;;
23573;SDS011;11965;53.640;10.050;2022-07-29T11:59:16;2.67;;;1.58;;
23573;SDS011;11965;53.640;10.050;2022-07-29T12:01:56;5.63;;;1.50;;
23573;SDS011;11965;53.640;10.050;2022-07-29T12:04:23;3.83;;;1.50;;
23573;SDS011;11965;53.640;10.050;2022-07-29T12:06:50;3.08;;;1.60;;
23573;SDS011;11965;53.640;10.050;2022-07-29T12:09:17;4.80;;;1.60;;
23573;SDS011;11965;53.640;10.050;2022-07-29T12:11:43;2.53;;;1.45;;
23573;SDS011;11965;53.640;10.050;2022-07-29T12:14:08;1.80;;;1.38;;
23573;SDS011;11965;53.640;10.050;2022-07-29T12:16:37;3.42;;;1.50;;
23573;SDS011;11965;53.640;10.050;2022-07-29T12:19:03;4.03;;;1.45;;
23573;SDS011;11965;53.640;10.050;2022-07-29T12:21:48;3.58;;;1.40;;
23573;SDS011;11965;53.640;10.050;2022-07-29T12:24:15;2.85;;;1.38;;
23573;SDS011;11965;53.640;10.050;2022-07-29T12:26:55;5.88;;;1.75;;
23573;SDS011;11965;53.640;10.050;2022-07-29T12:29:22;5.13;;;1.70;;
23573;SDS011;11965;53.640;10.050;2022-07-29T12:31:52;4.00;;;1.67;;
23573;SDS011;11965;53.640;10.050;2022-07-29T12:34:20;2.53;;;1.45;;
23573;SDS011;11965;53.640;10.050;2022-07-29T12:36:49;9.15;;;1.65;;
23573;SDS011;11965;53.640;10.050;2022-07-29T12:39:17;2.00;;;1.50;;
23573;SDS011;11965;53.640;10.050;2022-07-29T12:41:44;3.88;;;1.55;;
23573;SDS011;11965;53.640;10.050;2022-07-29T12:44:10;2.65;;;1.50;;
23573;SDS011;11965;53.640;10.050;2022-07-29T12:46:36;5.35;;;1.50;;
23573;SDS011;11965;53.640;10.050;2022-07-29T12:49:02;2.58;;;1.52;;
23573;SDS011;11965;53.640;10.050;2022-07-29T12:51:33;3.80;;;1.45;;
23573;SDS011;11965;53.640;10.050;2022-07-29T12:56:33;4.55;;;1.70;;
23573;SDS011;11965;53.640;10.050;2022-07-29T12:58:58;3.90;;;1.80;;
23573;SDS011;11965;53.640;10.050;2022-07-29T13:01:24;5.50;;;1.70;;
23573;SDS011;11965;53.640;10.050;2022-07-29T13:03:56;4.00;;;1.75;;
23573;SDS011;11965;53.640;10.050;2022-07-29T13:11:50;3.33;;;1.80;;
23573;SDS011;11965;53.640;10.050;2022-07-29T13:24:27;5.75;;;1.70;;
23573;SDS011;11965;53.640;10.050;2022-07-29T13:26:53;3.40;;;1.77;;
23573;SDS011;11965;53.640;10.050;2022-07-29T13:29:18;7.53;;;2.15;;
23573;SDS011;11965;53.640;10.050;2022-07-29T13:31:43;6.03;;;2.08;;
23573;SDS011;11965;53.640;10.050;2022-07-29T13:34:09;4.35;;;2.55;;
23573;SDS011;11965;53.640;10.050;2022-07-29T13:36:34;3.00;;;1.88;;
23573;SDS011;11965;53.640;10.050;2022-07-29T13:39:00;5.93;;;1.98;;
23573;SDS011;11965;53.640;10.050;2022-07-29T13:41:27;6.25;;;2.05;;
23573;SDS011;11965;53.640;10.050;2022-07-29T13:43:54;3.92;;;1.90;;
23573;SDS011;11965;53.640;10.050;2022-07-29T13:46:19;3.80;;;2.10;;
23573;SDS011;11965;53.640;10.050;2022-07-29T13:48:45;4.38;;;1.90;;
23573;SDS011;11965;53.640;10.050;2022-07-29T13:51:10;3.53;;;2.05;;
23573;SDS011;11965;53.640;10.050;2022-07-29T13:53:36;6.45;;;1.98;;
23573;SDS011;11965;53.640;10.050;2022-07-29T13:56:01;9.93;;;2.17;;
23573;SDS011;11965;53.640;10.050;2022-07-29T13:58:27;4.75;;;1.90;;
23573;SDS011;11965;53.640;10.050;2022-07-29T14:00:52;6.05;;;2.00;;
23573;SDS011;11965;53.640;10.050;2022-07-29T14:03:18;9.48;;;1.92;;
23573;SDS011;11965;53.640;10.050;2022-07-29T14:05:43;5.05;;;2.20;;
23573;SDS011;11965;53.640;10.050;2022-07-29T14:08:09;9.48;;;2.00;;
23573;SDS011;11965;53.640;10.050;2022-07-29T14:10:34;5.85;;;2.20;;
23573;SDS011;11965;53.640;10.050;2022-07-29T14:13:00;2.60;;;1.70;;
23573;SDS011;11965;53.640;10.050;2022-07-29T14:15:25;9.00;;;2.20;;
23573;SDS011;11965;53.640;10.050;2022-07-29T14:17:51;4.55;;;2.42;;
23573;SDS011;11965;53.640;10.050;2022-07-29T14:20:16;2.63;;;1.60;;
23573;SDS011;11965;53.640;10.050;2022-07-29T14:22:42;6.57;;;2.00;;
23573;SDS011;11965;53.640;10.050;2022-07-29T14:25:08;7.95;;;1.83;;
23573;SDS011;11965;53.640;10.050;2022-07-29T14:27:33;4.40;;;1.83;;
23573;SDS011;11965;53.640;10.050;2022-07-29T14:29:59;6.53;;;1.80;;
23573;SDS011;11965;53.640;10.050;2022-07-29T14:32:24;4.88;;;2.00;;
23573;SDS011;11965;53.640;10.050;2022-07-29T14:34:49;4.43;;;2.05;;
23573;SDS011;11965;53.640;10.050;2022-07-29T14:37:15;4.75;;;1.80;;
23573;SDS011;11965;53.640;10.050;2022-07-29T14:39:40;3.17;;;2.10;;
23573;SDS011;11965;53.640;10.050;2022-07-29T14:42:06;2.35;;;1.48;;
23573;SDS011;11965;53.640;10.050;2022-07-29T14:44:32;4.18;;;1.55;;
23573;SDS011;11965;53.640;10.050;2022-07-29T14:46:59;5.30;;;1.73;;
23573;SDS011;11965;53.640;10.050;2022-07-29T14:49:26;3.15;;;2.10;;
23573;SDS011;11965;53.640;10.050;2022-07-29T14:51:51;3.58;;;1.67;;
23573;SDS011;11965;53.640;10.050;2022-07-29T14:54:18;4.88;;;1.88;;
23573;SDS011;11965;53.640;10.050;2022-07-29T14:56:43;3.55;;;1.80;;
23573;SDS011;11965;53.640;10.050;2022-07-29T14:59:09;5.78;;;1.90;;
23573;SDS011;11965;53.640;10.050;2022-07-29T15:01:35;4.10;;;1.65;;
23573;SDS011;11965;53.640;10.050;2022-07-29T15:04:00;3.13;;;1.80;;
23573;SDS011;11965;53.640;10.050;2022-07-29T15:06:26;3.00;;;1.75;;
23573;SDS011;11965;53.640;10.050;2022-07-29T15:08:52;2.28;;;1.70;;
23573;SDS011;11965;53.640;10.050;2022-07-29T15:11:17;2.70;;;1.70;;
23573;SDS011;11965;53.640;10.050;2022-07-29T15:13:42;3.58;;;1.77;;
23573;SDS011;11965;53.640;10.050;2022-07-29T15:16:08;5.47;;;1.70;;
23573;SDS011;11965;53.640;10.050;2022-07-29T15:18:34;7.90;;;1.85;;
23573;SDS011;11965;53.640;10.050;2022-07-29T15:21:00;5.32;;;1.85;;
23573;SDS011;11965;53.640;10.050;2022-07-29T15:23:26;3.58;;;1.90;;
23573;SDS011;11965;53.640;10.050;2022-07-29T15:25:52;2.65;;;1.75;;
23573;SDS011;11965;53.640;10.050;2022-07-29T15:28:17;3.85;;;1.80;;
23573;SDS011;11965;53.640;10.050;2022-07-29T15:30:43;6.50;;;1.77;;